sensor_id;sensor_type;location;lat;lon;timestamp;P1;durP1;ratioP1;P2;durP2;ratioP2
5456;SDS011;2751;49.802;9.944;2023-02-24T00:01:59;20.37;;;12.67;;
5456;SDS011;2751;49.802;9.944;2023-02-24T00:04:30;18.83;;;11.47;;
5456;SDS011;2751;49.802;9.944;2023-02-24T00:06:58;18.90;;;12.60;;
5456;SDS011;2751;49.802;9.944;2023-02-24T00:09:28;21.70;;;12.43;;
5456;SDS011;2751;49.802;9.944;2023-02-24T00:11:57;18.70;;;12.17;;
5456;SDS011;2751;49.802;9.944;2023-02-24T00:14:27;18.67;;;12.20;;
5456;SDS011;2751;49.802;9.944;2023-02-24T00:16:55;20.13;;;12.93;;
5456;SDS011;2751;49.802;9.944;2023-02-24T00:19:23;18.10;;;11.33;;
5456;SDS011;2751;49.802;9.944;2023-02-24T00:21:53;20.40;;;11.83;;
5456;SDS011;2751;49.802;9.944;2023-02-24T00:24:20;19.33;;;12.33;;
5456;SDS011;2751;49.802;9.944;2023-02-24T00:26:51;23.30;;;12.80;;
5456;SDS011;2751;49.802;9.944;2023-02-24T00:29:20;23.03;;;12.60;;
5456;SDS011;2751;49.802;9.944;2023-02-24T00:31:48;19.43;;;14.00;;
5456;SDS011;2751;49.802;9.944;2023-02-24T00:34:20;17.53;;;12.17;;
5456;SDS011;2751;49.802;9.944;2023-02-24T00:36:48;21.70;;;12.63;;
5456;SDS011;2751;49.802;9.944;2023-02-24T00:39:14;19.90;;;13.13;;
5456;SDS011;2751;49.802;9.944;2023-02-24T00:41:42;20.43;;;13.10;;
5456;SDS011;2751;49.802;9.944;2023-02-24T00:44:11;23.13;;;13.57;;
5456;SDS011;2751;49.802;9.944;2023-02-24T00:46:41;21.47;;;13.53;;
5456;SDS011;2751;49.802;9.944;2023-02-24T00:49:10;20.80;;;12.50;;
5456;SDS011;2751;49.802;9.944;2023-02-24T00:51:41;22.80;;;13.30;;
5456;SDS011;2751;49.802;9.944;2023-02-24T00:54:09;26.93;;;13.63;;
5456;SDS011;2751;49.802;9.944;2023-02-24T00:56:39;20.27;;;13.20;;
5456;SDS011;2751;49.802;9.944;2023-02-24T00:59:06;21.27;;;12.97;;
5456;SDS011;2751;49.802;9.944;2023-02-24T01:01:34;18.50;;;13.00;;
5456;SDS011;2751;49.802;9.944;2023-02-24T01:04:02;23.90;;;12.57;;
5456;SDS011;2751;49.802;9.944;2023-02-24T01:06:36;24.40;;;13.10;;
5456;SDS011;2751;49.802;9.944;2023-02-24T01:09:04;19.20;;;12.50;;
5456;SDS011;2751;49.802;9.944;2023-02-24T01:11:36;20.80;;;13.40;;
5456;SDS011;2751;49.802;9.944;2023-02-24T01:14:22;22.70;;;13.60;;
5456;SDS011;2751;49.802;9.944;2023-02-24T01:16:52;18.90;;;12.67;;
5456;SDS011;2751;49.802;9.944;2023-02-24T01:19:20;23.13;;;13.23;;
5456;SDS011;2751;49.802;9.944;2023-02-24T01:21:48;21.93;;;14.10;;
5456;SDS011;2751;49.802;9.944;2023-02-24T01:24:19;21.07;;;13.00;;
5456;SDS011;2751;49.802;9.944;2023-02-24T01:26:46;21.97;;;13.60;;
5456;SDS011;2751;49.802;9.944;2023-02-24T01:29:13;22.70;;;14.10;;
5456;SDS011;2751;49.802;9.944;2023-02-24T01:31:40;19.10;;;12.67;;
5456;SDS011;2751;49.802;9.944;2023-02-24T01:34:09;23.73;;;14.20;;
5456;SDS011;2751;49.802;9.944;2023-02-24T01:36:38;22.03;;;12.97;;
5456;SDS011;2751;49.802;9.944;2023-02-24T01:39:08;24.60;;;13.40;;
5456;SDS011;2751;49.802;9.944;2023-02-24T01:41:36;22.90;;;13.10;;
5456;SDS011;2751;49.802;9.944;2023-02-24T01:44:06;22.67;;;14.17;;
5456;SDS011;2751;49.802;9.944;2023-02-24T01:46:53;24.60;;;13.57;;
5456;SDS011;2751;49.802;9.944;2023-02-24T01:49:23;24.10;;;13.60;;
5456;SDS011;2751;49.802;9.944;2023-02-24T01:52:03;22.87;;;12.87;;
5456;SDS011;2751;49.802;9.944;2023-02-24T01:54:34;24.43;;;12.87;;
5456;SDS011;2751;49.802;9.944;2023-02-24T01:57:07;21.73;;;12.50;;
5456;SDS011;2751;49.802;9.944;2023-02-24T01:59:35;24.00;;;13.47;;
5456;SDS011;2751;49.802;9.944;2023-02-24T02:02:04;23.17;;;13.30;;
5456;SDS011;2751;49.802;9.944;2023-02-24T02:04:35;26.60;;;13.20;;
5456;SDS011;2751;49.802;9.944;2023-02-24T02:07:06;24.27;;;14.70;;
5456;SDS011;2751;49.802;9.944;2023-02-24T02:09:35;19.50;;;12.80;;
5456;SDS011;2751;49.802;9.944;2023-02-24T02:12:05;22.80;;;13.03;;
5456;SDS011;2751;49.802;9.944;2023-02-24T02:14:33;23.53;;;12.90;;
5456;SDS011;2751;49.802;9.944;2023-02-24T02:17:06;27.07;;;14.73;;
5456;SDS011;2751;49.802;9.944;2023-02-24T02:23:00;21.40;;;13.20;;
5456;SDS011;2751;49.802;9.944;2023-02-24T02:25:47;23.57;;;14.40;;
5456;SDS011;2751;49.802;9.944;2023-02-24T02:28:37;20.97;;;13.80;;
5456;SDS011;2751;49.802;9.944;2023-02-24T02:31:35;23.23;;;14.77;;
5456;SDS011;2751;49.802;9.944;2023-02-24T02:34:23;24.40;;;14.63;;
5456;SDS011;2751;49.802;9.944;2023-02-24T02:36:59;25.67;;;13.90;;
5456;SDS011;2751;49.802;9.944;2023-02-24T02:39:32;32.13;;;16.00;;
5456;SDS011;2751;49.802;9.944;2023-02-24T02:42:08;28.60;;;15.07;;
5456;SDS011;2751;49.802;9.944;2023-02-24T02:44:46;24.70;;;14.37;;
5456;SDS011;2751;49.802;9.944;2023-02-24T02:47:21;27.70;;;15.80;;
5456;SDS011;2751;49.802;9.944;2023-02-24T02:49:54;30.67;;;15.73;;
5456;SDS011;2751;49.802;9.944;2023-02-24T02:52:26;24.73;;;14.47;;
5456;SDS011;2751;49.802;9.944;2023-02-24T02:54:57;23.07;;;15.27;;
5456;SDS011;2751;49.802;9.944;2023-02-24T02:57:28;28.83;;;16.80;;
5456;SDS011;2751;49.802;9.944;2023-02-24T02:59:58;26.17;;;15.03;;
5456;SDS011;2751;49.802;9.944;2023-02-24T03:02:35;26.57;;;15.67;;
5456;SDS011;2751;49.802;9.944;2023-02-24T03:05:07;26.10;;;14.67;;
5456;SDS011;2751;49.802;9.944;2023-02-24T03:07:38;27.67;;;13.87;;
5456;SDS011;2751;49.802;9.944;2023-02-24T03:10:07;30.50;;;15.47;;
5456;SDS011;2751;49.802;9.944;2023-02-24T03:12:45;27.20;;;15.97;;
5456;SDS011;2751;49.802;9.944;2023-02-24T03:15:15;31.90;;;15.83;;
5456;SDS011;2751;49.802;9.944;2023-02-24T03:17:45;25.90;;;15.70;;
5456;SDS011;2751;49.802;9.944;2023-02-24T03:20:18;28.03;;;15.50;;
5456;SDS011;2751;49.802;9.944;2023-02-24T03:22:48;24.97;;;14.50;;
5456;SDS011;2751;49.802;9.944;2023-02-24T03:25:21;27.30;;;14.70;;
5456;SDS011;2751;49.802;9.944;2023-02-24T03:27:54;28.07;;;15.90;;
5456;SDS011;2751;49.802;9.944;2023-02-24T03:30:28;29.40;;;16.80;;
5456;SDS011;2751;49.802;9.944;2023-02-24T03:33:09;32.07;;;15.73;;
5456;SDS011;2751;49.802;9.944;2023-02-24T03:35:43;30.93;;;15.60;;
5456;SDS011;2751;49.802;9.944;2023-02-24T03:38:10;29.20;;;16.17;;
5456;SDS011;2751;49.802;9.944;2023-02-24T03:40:38;34.43;;;15.87;;
5456;SDS011;2751;49.802;9.944;2023-02-24T03:43:08;29.67;;;16.47;;
5456;SDS011;2751;49.802;9.944;2023-02-24T03:45:42;27.70;;;16.10;;
5456;SDS011;2751;49.802;9.944;2023-02-24T03:48:10;28.10;;;15.53;;
5456;SDS011;2751;49.802;9.944;2023-02-24T03:50:37;28.17;;;15.03;;
5456;SDS011;2751;49.802;9.944;2023-02-24T03:53:12;26.00;;;15.10;;
5456;SDS011;2751;49.802;9.944;2023-02-24T03:56:02;28.40;;;16.23;;
5456;SDS011;2751;49.802;9.944;2023-02-24T03:58:42;25.50;;;15.03;;
5456;SDS011;2751;49.802;9.944;2023-02-24T04:01:23;27.63;;;14.50;;
5456;SDS011;2751;49.802;9.944;2023-02-24T04:03:59;23.87;;;14.83;;
5456;SDS011;2751;49.802;9.944;2023-02-24T04:06:31;25.40;;;14.07;;
5456;SDS011;2751;49.802;9.944;2023-02-24T04:09:09;32.33;;;14.70;;
5456;SDS011;2751;49.802;9.944;2023-02-24T04:11:41;23.50;;;13.70;;
5456;SDS011;2751;49.802;9.944;2023-02-24T04:14:11;31.50;;;15.90;;
5456;SDS011;2751;49.802;9.944;2023-02-24T04:16:46;24.20;;;14.73;;
5456;SDS011;2751;49.802;9.944;2023-02-24T04:19:18;28.53;;;15.10;;
5456;SDS011;2751;49.802;9.944;2023-02-24T04:21:48;30.43;;;16.30;;
5456;SDS011;2751;49.802;9.944;2023-02-24T04:24:18;27.57;;;15.37;;
5456;SDS011;2751;49.802;9.944;2023-02-24T04:26:47;30.60;;;16.67;;
5456;SDS011;2751;49.802;9.944;2023-02-24T04:29:17;28.77;;;15.03;;
5456;SDS011;2751;49.802;9.944;2023-02-24T04:31:48;28.27;;;17.13;;
5456;SDS011;2751;49.802;9.944;2023-02-24T04:34:17;28.23;;;16.80;;
5456;SDS011;2751;49.802;9.944;2023-02-24T04:36:44;31.33;;;16.60;;
5456;SDS011;2751;49.802;9.944;2023-02-24T04:39:13;27.00;;;16.30;;
5456;SDS011;2751;49.802;9.944;2023-02-24T04:41:44;31.07;;;16.10;;
5456;SDS011;2751;49.802;9.944;2023-02-24T04:44:13;30.93;;;15.77;;
5456;SDS011;2751;49.802;9.944;2023-02-24T04:46:42;32.63;;;16.60;;
5456;SDS011;2751;49.802;9.944;2023-02-24T04:49:09;28.77;;;15.30;;
5456;SDS011;2751;49.802;9.944;2023-02-24T04:51:37;27.90;;;16.50;;
5456;SDS011;2751;49.802;9.944;2023-02-24T04:54:07;33.40;;;15.53;;
5456;SDS011;2751;49.802;9.944;2023-02-24T04:56:34;29.13;;;15.87;;
5456;SDS011;2751;49.802;9.944;2023-02-24T04:59:02;30.70;;;14.90;;
5456;SDS011;2751;49.802;9.944;2023-02-24T05:01:29;27.87;;;14.93;;
5456;SDS011;2751;49.802;9.944;2023-02-24T05:03:56;28.03;;;13.87;;
5456;SDS011;2751;49.802;9.944;2023-02-24T05:06:24;33.30;;;15.73;;
5456;SDS011;2751;49.802;9.944;2023-02-24T05:08:51;27.80;;;15.73;;
5456;SDS011;2751;49.802;9.944;2023-02-24T05:11:18;30.43;;;15.97;;
5456;SDS011;2751;49.802;9.944;2023-02-24T05:13:45;30.13;;;16.00;;
5456;SDS011;2751;49.802;9.944;2023-02-24T05:16:14;28.37;;;15.80;;
5456;SDS011;2751;49.802;9.944;2023-02-24T05:18:44;31.60;;;16.87;;
5456;SDS011;2751;49.802;9.944;2023-02-24T05:21:12;30.23;;;15.70;;
5456;SDS011;2751;49.802;9.944;2023-02-24T05:24:08;25.77;;;15.40;;
5456;SDS011;2751;49.802;9.944;2023-02-24T05:26:38;23.60;;;14.83;;
5456;SDS011;2751;49.802;9.944;2023-02-24T05:29:06;29.07;;;15.87;;
5456;SDS011;2751;49.802;9.944;2023-02-24T05:31:34;29.97;;;16.00;;
5456;SDS011;2751;49.802;9.944;2023-02-24T05:34:02;35.40;;;15.17;;
5456;SDS011;2751;49.802;9.944;2023-02-24T05:36:31;28.63;;;15.50;;
5456;SDS011;2751;49.802;9.944;2023-02-24T05:39:00;30.10;;;16.80;;
5456;SDS011;2751;49.802;9.944;2023-02-24T05:41:31;28.70;;;15.60;;
5456;SDS011;2751;49.802;9.944;2023-02-24T05:44:01;30.10;;;14.17;;
5456;SDS011;2751;49.802;9.944;2023-02-24T05:46:33;30.50;;;16.00;;
5456;SDS011;2751;49.802;9.944;2023-02-24T05:49:03;29.23;;;16.47;;
5456;SDS011;2751;49.802;9.944;2023-02-24T05:51:34;28.63;;;15.37;;
5456;SDS011;2751;49.802;9.944;2023-02-24T05:54:03;28.57;;;15.57;;
5456;SDS011;2751;49.802;9.944;2023-02-24T05:56:31;32.10;;;15.87;;
5456;SDS011;2751;49.802;9.944;2023-02-24T05:58:59;30.43;;;16.50;;
5456;SDS011;2751;49.802;9.944;2023-02-24T06:01:28;30.23;;;16.60;;
5456;SDS011;2751;49.802;9.944;2023-02-24T06:03:58;28.93;;;15.67;;
5456;SDS011;2751;49.802;9.944;2023-02-24T06:06:30;26.47;;;15.43;;
5456;SDS011;2751;49.802;9.944;2023-02-24T06:09:00;28.03;;;14.40;;
5456;SDS011;2751;49.802;9.944;2023-02-24T06:11:32;27.30;;;14.10;;
5456;SDS011;2751;49.802;9.944;2023-02-24T06:13:59;29.07;;;15.70;;
5456;SDS011;2751;49.802;9.944;2023-02-24T06:16:27;29.27;;;14.00;;
5456;SDS011;2751;49.802;9.944;2023-02-24T06:18:55;28.67;;;15.70;;
5456;SDS011;2751;49.802;9.944;2023-02-24T06:21:23;27.90;;;14.73;;
5456;SDS011;2751;49.802;9.944;2023-02-24T06:23:53;27.80;;;15.77;;
5456;SDS011;2751;49.802;9.944;2023-02-24T06:26:21;31.07;;;14.47;;
5456;SDS011;2751;49.802;9.944;2023-02-24T06:28:51;26.37;;;14.00;;
5456;SDS011;2751;49.802;9.944;2023-02-24T06:31:18;25.43;;;14.30;;
5456;SDS011;2751;49.802;9.944;2023-02-24T06:33:45;27.97;;;14.70;;
5456;SDS011;2751;49.802;9.944;2023-02-24T06:36:12;24.57;;;13.30;;
5456;SDS011;2751;49.802;9.944;2023-02-24T06:38:41;23.50;;;12.90;;
5456;SDS011;2751;49.802;9.944;2023-02-24T06:41:08;24.03;;;12.87;;
5456;SDS011;2751;49.802;9.944;2023-02-24T06:43:36;26.30;;;14.80;;
5456;SDS011;2751;49.802;9.944;2023-02-24T06:46:04;31.33;;;13.63;;
5456;SDS011;2751;49.802;9.944;2023-02-24T06:48:31;24.70;;;12.43;;
5456;SDS011;2751;49.802;9.944;2023-02-24T06:51:02;25.50;;;13.30;;
5456;SDS011;2751;49.802;9.944;2023-02-24T06:53:30;21.80;;;11.27;;
5456;SDS011;2751;49.802;9.944;2023-02-24T06:56:02;25.80;;;13.97;;
5456;SDS011;2751;49.802;9.944;2023-02-24T06:58:38;25.43;;;13.57;;
5456;SDS011;2751;49.802;9.944;2023-02-24T07:01:08;25.10;;;13.97;;
5456;SDS011;2751;49.802;9.944;2023-02-24T07:03:36;22.67;;;12.60;;
5456;SDS011;2751;49.802;9.944;2023-02-24T07:06:11;25.73;;;13.27;;
5456;SDS011;2751;49.802;9.944;2023-02-24T07:08:49;30.17;;;14.57;;
5456;SDS011;2751;49.802;9.944;2023-02-24T07:11:19;25.60;;;12.10;;
5456;SDS011;2751;49.802;9.944;2023-02-24T07:13:46;24.33;;;13.03;;
5456;SDS011;2751;49.802;9.944;2023-02-24T07:16:15;23.80;;;13.70;;
5456;SDS011;2751;49.802;9.944;2023-02-24T07:18:43;32.47;;;13.43;;
5456;SDS011;2751;49.802;9.944;2023-02-24T07:21:12;27.53;;;14.53;;
5456;SDS011;2751;49.802;9.944;2023-02-24T07:23:42;24.30;;;12.43;;
5456;SDS011;2751;49.802;9.944;2023-02-24T07:26:14;23.33;;;12.57;;
5456;SDS011;2751;49.802;9.944;2023-02-24T07:28:44;21.43;;;13.13;;
5456;SDS011;2751;49.802;9.944;2023-02-24T07:31:12;26.43;;;12.83;;
5456;SDS011;2751;49.802;9.944;2023-02-24T07:33:42;23.80;;;12.57;;
5456;SDS011;2751;49.802;9.944;2023-02-24T07:36:11;18.90;;;10.80;;
5456;SDS011;2751;49.802;9.944;2023-02-24T07:38:40;21.47;;;11.37;;
5456;SDS011;2751;49.802;9.944;2023-02-24T07:41:08;18.03;;;9.67;;
5456;SDS011;2751;49.802;9.944;2023-02-24T07:43:37;24.03;;;12.73;;
5456;SDS011;2751;49.802;9.944;2023-02-24T07:46:07;23.10;;;11.90;;
5456;SDS011;2751;49.802;9.944;2023-02-24T07:48:35;18.60;;;11.10;;
5456;SDS011;2751;49.802;9.944;2023-02-24T07:51:05;23.57;;;11.33;;
5456;SDS011;2751;49.802;9.944;2023-02-24T07:53:33;22.30;;;11.00;;
5456;SDS011;2751;49.802;9.944;2023-02-24T07:56:01;24.23;;;12.67;;
5456;SDS011;2751;49.802;9.944;2023-02-24T07:58:36;21.10;;;11.70;;
5456;SDS011;2751;49.802;9.944;2023-02-24T08:01:16;20.70;;;11.40;;
5456;SDS011;2751;49.802;9.944;2023-02-24T08:03:57;22.17;;;10.60;;
5456;SDS011;2751;49.802;9.944;2023-02-24T08:06:31;18.93;;;10.20;;
5456;SDS011;2751;49.802;9.944;2023-02-24T08:09:03;20.10;;;11.27;;
5456;SDS011;2751;49.802;9.944;2023-02-24T08:11:42;25.30;;;13.27;;
5456;SDS011;2751;49.802;9.944;2023-02-24T08:14:11;19.83;;;11.03;;
5456;SDS011;2751;49.802;9.944;2023-02-24T08:16:40;26.83;;;13.60;;
5456;SDS011;2751;49.802;9.944;2023-02-24T08:19:08;19.87;;;11.27;;
5456;SDS011;2751;49.802;9.944;2023-02-24T08:21:37;21.20;;;10.63;;
5456;SDS011;2751;49.802;9.944;2023-02-24T08:24:06;23.00;;;11.23;;
5456;SDS011;2751;49.802;9.944;2023-02-24T08:26:41;21.07;;;11.23;;
5456;SDS011;2751;49.802;9.944;2023-02-24T08:29:09;25.47;;;11.03;;
5456;SDS011;2751;49.802;9.944;2023-02-24T08:31:37;26.67;;;11.37;;
5456;SDS011;2751;49.802;9.944;2023-02-24T08:34:05;24.53;;;12.07;;
5456;SDS011;2751;49.802;9.944;2023-02-24T08:36:32;24.27;;;13.10;;
5456;SDS011;2751;49.802;9.944;2023-02-24T08:38:59;20.17;;;11.30;;
5456;SDS011;2751;49.802;9.944;2023-02-24T08:41:26;21.90;;;11.00;;
5456;SDS011;2751;49.802;9.944;2023-02-24T08:44:10;20.47;;;11.50;;
5456;SDS011;2751;49.802;9.944;2023-02-24T08:46:43;20.90;;;10.90;;
5456;SDS011;2751;49.802;9.944;2023-02-24T08:49:14;21.33;;;10.77;;
5456;SDS011;2751;49.802;9.944;2023-02-24T08:51:43;22.53;;;10.50;;
5456;SDS011;2751;49.802;9.944;2023-02-24T08:54:12;24.90;;;11.77;;
5456;SDS011;2751;49.802;9.944;2023-02-24T08:56:41;21.63;;;11.90;;
5456;SDS011;2751;49.802;9.944;2023-02-24T08:59:13;19.03;;;9.93;;
5456;SDS011;2751;49.802;9.944;2023-02-24T09:02:03;18.97;;;10.37;;
5456;SDS011;2751;49.802;9.944;2023-02-24T09:04:50;25.60;;;11.80;;
5456;SDS011;2751;49.802;9.944;2023-02-24T09:07:28;24.80;;;11.17;;
5456;SDS011;2751;49.802;9.944;2023-02-24T09:09:59;23.93;;;10.97;;
5456;SDS011;2751;49.802;9.944;2023-02-24T09:12:27;16.47;;;10.23;;
5456;SDS011;2751;49.802;9.944;2023-02-24T09:14:57;20.43;;;9.73;;
5456;SDS011;2751;49.802;9.944;2023-02-24T09:17:28;18.97;;;9.47;;
5456;SDS011;2751;49.802;9.944;2023-02-24T09:20:15;19.80;;;11.70;;
5456;SDS011;2751;49.802;9.944;2023-02-24T09:23:16;26.10;;;12.20;;
5456;SDS011;2751;49.802;9.944;2023-02-24T09:25:53;18.00;;;8.47;;
5456;SDS011;2751;49.802;9.944;2023-02-24T09:28:21;20.10;;;9.70;;
5456;SDS011;2751;49.802;9.944;2023-02-24T09:30:50;19.83;;;9.10;;
5456;SDS011;2751;49.802;9.944;2023-02-24T09:33:19;18.17;;;11.10;;
5456;SDS011;2751;49.802;9.944;2023-02-24T09:35:50;21.93;;;11.30;;
5456;SDS011;2751;49.802;9.944;2023-02-24T09:38:27;19.00;;;10.73;;
5456;SDS011;2751;49.802;9.944;2023-02-24T09:41:19;16.00;;;8.20;;
5456;SDS011;2751;49.802;9.944;2023-02-24T09:43:55;11.83;;;7.40;;
5456;SDS011;2751;49.802;9.944;2023-02-24T09:46:27;17.80;;;8.53;;
5456;SDS011;2751;49.802;9.944;2023-02-24T09:48:59;19.40;;;10.73;;
5456;SDS011;2751;49.802;9.944;2023-02-24T09:51:33;13.37;;;7.13;;
5456;SDS011;2751;49.802;9.944;2023-02-24T09:54:09;19.27;;;9.73;;
5456;SDS011;2751;49.802;9.944;2023-02-24T09:56:40;13.00;;;6.97;;
5456;SDS011;2751;49.802;9.944;2023-02-24T09:59:14;17.60;;;9.73;;
5456;SDS011;2751;49.802;9.944;2023-02-24T10:01:53;16.80;;;9.80;;
5456;SDS011;2751;49.802;9.944;2023-02-24T10:04:33;16.17;;;8.37;;
5456;SDS011;2751;49.802;9.944;2023-02-24T10:07:21;19.53;;;10.40;;
5456;SDS011;2751;49.802;9.944;2023-02-24T10:09:54;14.60;;;6.87;;
5456;SDS011;2751;49.802;9.944;2023-02-24T10:12:43;17.93;;;10.40;;
5456;SDS011;2751;49.802;9.944;2023-02-24T10:15:16;18.40;;;8.37;;
5456;SDS011;2751;49.802;9.944;2023-02-24T10:18:13;17.53;;;9.33;;
5456;SDS011;2751;49.802;9.944;2023-02-24T10:20:52;9.40;;;5.33;;
5456;SDS011;2751;49.802;9.944;2023-02-24T10:23:27;10.40;;;6.00;;
5456;SDS011;2751;49.802;9.944;2023-02-24T10:25:59;7.40;;;4.67;;
5456;SDS011;2751;49.802;9.944;2023-02-24T10:28:28;12.67;;;5.27;;
5456;SDS011;2751;49.802;9.944;2023-02-24T10:31:02;17.00;;;9.37;;
5456;SDS011;2751;49.802;9.944;2023-02-24T10:33:48;11.03;;;6.20;;
5456;SDS011;2751;49.802;9.944;2023-02-24T10:36:19;14.50;;;7.90;;
5456;SDS011;2751;49.802;9.944;2023-02-24T10:38:55;14.30;;;7.37;;
5456;SDS011;2751;49.802;9.944;2023-02-24T10:41:39;14.30;;;7.03;;
5456;SDS011;2751;49.802;9.944;2023-02-24T10:44:10;16.57;;;9.80;;
5456;SDS011;2751;49.802;9.944;2023-02-24T10:46:40;10.43;;;6.70;;
5456;SDS011;2751;49.802;9.944;2023-02-24T10:49:08;14.47;;;6.50;;
5456;SDS011;2751;49.802;9.944;2023-02-24T10:51:41;16.97;;;9.17;;
5456;SDS011;2751;49.802;9.944;2023-02-24T10:54:14;15.17;;;9.23;;
5456;SDS011;2751;49.802;9.944;2023-02-24T10:56:58;14.13;;;6.00;;
5456;SDS011;2751;49.802;9.944;2023-02-24T10:59:44;13.07;;;6.93;;
5456;SDS011;2751;49.802;9.944;2023-02-24T11:02:27;13.50;;;7.53;;
5456;SDS011;2751;49.802;9.944;2023-02-24T11:04:59;12.50;;;7.90;;
5456;SDS011;2751;49.802;9.944;2023-02-24T11:08:02;13.90;;;7.17;;
5456;SDS011;2751;49.802;9.944;2023-02-24T11:10:35;17.97;;;10.53;;
5456;SDS011;2751;49.802;9.944;2023-02-24T11:13:17;15.90;;;8.70;;
5456;SDS011;2751;49.802;9.944;2023-02-24T11:16:02;15.63;;;8.33;;
5456;SDS011;2751;49.802;9.944;2023-02-24T11:18:50;15.93;;;8.93;;
5456;SDS011;2751;49.802;9.944;2023-02-24T11:21:21;15.07;;;8.63;;
5456;SDS011;2751;49.802;9.944;2023-02-24T11:23:49;11.00;;;6.83;;
5456;SDS011;2751;49.802;9.944;2023-02-24T11:26:29;17.30;;;9.07;;
5456;SDS011;2751;49.802;9.944;2023-02-24T11:29:02;14.10;;;8.10;;
5456;SDS011;2751;49.802;9.944;2023-02-24T11:31:48;12.60;;;7.60;;
5456;SDS011;2751;49.802;9.944;2023-02-24T11:34:31;11.70;;;5.50;;
5456;SDS011;2751;49.802;9.944;2023-02-24T11:37:08;10.60;;;5.00;;
5456;SDS011;2751;49.802;9.944;2023-02-24T11:39:47;9.33;;;5.13;;
5456;SDS011;2751;49.802;9.944;2023-02-24T11:42:22;15.97;;;9.17;;
5456;SDS011;2751;49.802;9.944;2023-02-24T11:44:53;13.30;;;7.77;;
5456;SDS011;2751;49.802;9.944;2023-02-24T11:47:26;21.03;;;9.60;;
5456;SDS011;2751;49.802;9.944;2023-02-24T11:50:04;19.67;;;12.07;;
5456;SDS011;2751;49.802;9.944;2023-02-24T11:52:40;11.63;;;6.10;;
5456;SDS011;2751;49.802;9.944;2023-02-24T11:55:13;10.20;;;6.10;;
5456;SDS011;2751;49.802;9.944;2023-02-24T11:57:48;19.07;;;9.43;;
5456;SDS011;2751;49.802;9.944;2023-02-24T12:00:20;13.50;;;7.27;;
5456;SDS011;2751;49.802;9.944;2023-02-24T12:02:52;16.27;;;8.77;;
5456;SDS011;2751;49.802;9.944;2023-02-24T12:05:26;18.07;;;7.90;;
5456;SDS011;2751;49.802;9.944;2023-02-24T12:08:01;8.10;;;4.73;;
5456;SDS011;2751;49.802;9.944;2023-02-24T12:10:33;14.67;;;8.17;;
5456;SDS011;2751;49.802;9.944;2023-02-24T12:13:06;13.63;;;8.07;;
5456;SDS011;2751;49.802;9.944;2023-02-24T12:15:46;11.57;;;6.63;;
5456;SDS011;2751;49.802;9.944;2023-02-24T12:18:18;11.70;;;6.37;;
5456;SDS011;2751;49.802;9.944;2023-02-24T12:20:51;12.07;;;7.90;;
5456;SDS011;2751;49.802;9.944;2023-02-24T12:23:24;9.57;;;6.30;;
5456;SDS011;2751;49.802;9.944;2023-02-24T12:26:02;13.03;;;8.50;;
5456;SDS011;2751;49.802;9.944;2023-02-24T12:31:43;12.07;;;7.93;;
5456;SDS011;2751;49.802;9.944;2023-02-24T12:34:21;10.73;;;6.70;;
5456;SDS011;2751;49.802;9.944;2023-02-24T12:36:58;9.10;;;5.97;;
5456;SDS011;2751;49.802;9.944;2023-02-24T12:39:44;12.93;;;7.70;;
5456;SDS011;2751;49.802;9.944;2023-02-24T12:42:20;13.50;;;6.60;;
5456;SDS011;2751;49.802;9.944;2023-02-24T12:44:56;15.97;;;7.23;;
5456;SDS011;2751;49.802;9.944;2023-02-24T12:47:32;11.50;;;7.50;;
5456;SDS011;2751;49.802;9.944;2023-02-24T12:50:17;8.53;;;4.70;;
5456;SDS011;2751;49.802;9.944;2023-02-24T12:52:52;13.00;;;6.30;;
5456;SDS011;2751;49.802;9.944;2023-02-24T12:55:29;10.40;;;5.40;;
5456;SDS011;2751;49.802;9.944;2023-02-24T12:58:05;11.43;;;6.50;;
5456;SDS011;2751;49.802;9.944;2023-02-24T13:00:41;12.80;;;5.83;;
5456;SDS011;2751;49.802;9.944;2023-02-24T13:03:21;11.60;;;6.20;;
5456;SDS011;2751;49.802;9.944;2023-02-24T13:05:58;9.90;;;4.97;;
5456;SDS011;2751;49.802;9.944;2023-02-24T13:08:34;12.40;;;5.70;;
5456;SDS011;2751;49.802;9.944;2023-02-24T13:11:11;13.47;;;6.60;;
5456;SDS011;2751;49.802;9.944;2023-02-24T13:13:44;12.77;;;7.00;;
5456;SDS011;2751;49.802;9.944;2023-02-24T13:16:27;9.23;;;5.37;;
5456;SDS011;2751;49.802;9.944;2023-02-24T13:19:03;11.27;;;5.10;;
5456;SDS011;2751;49.802;9.944;2023-02-24T13:21:31;9.43;;;5.07;;
5456;SDS011;2751;49.802;9.944;2023-02-24T13:24:00;7.37;;;4.47;;
5456;SDS011;2751;49.802;9.944;2023-02-24T13:26:28;6.10;;;3.67;;
5456;SDS011;2751;49.802;9.944;2023-02-24T13:28:58;14.27;;;7.20;;
5456;SDS011;2751;49.802;9.944;2023-02-24T13:31:37;9.43;;;5.03;;
5456;SDS011;2751;49.802;9.944;2023-02-24T13:34:11;10.30;;;6.23;;
5456;SDS011;2751;49.802;9.944;2023-02-24T13:36:44;9.57;;;5.90;;
5456;SDS011;2751;49.802;9.944;2023-02-24T13:39:19;9.17;;;5.43;;
5456;SDS011;2751;49.802;9.944;2023-02-24T13:41:48;10.03;;;5.90;;
5456;SDS011;2751;49.802;9.944;2023-02-24T13:44:27;9.67;;;5.10;;
5456;SDS011;2751;49.802;9.944;2023-02-24T13:47:00;10.50;;;5.80;;
5456;SDS011;2751;49.802;9.944;2023-02-24T13:49:42;9.33;;;5.20;;
5456;SDS011;2751;49.802;9.944;2023-02-24T13:52:23;6.40;;;4.10;;
5456;SDS011;2751;49.802;9.944;2023-02-24T13:55:06;6.70;;;3.90;;
5456;SDS011;2751;49.802;9.944;2023-02-24T13:57:47;6.70;;;4.00;;
5456;SDS011;2751;49.802;9.944;2023-02-24T14:00:27;6.90;;;4.57;;
5456;SDS011;2751;49.802;9.944;2023-02-24T14:03:06;11.73;;;6.50;;
5456;SDS011;2751;49.802;9.944;2023-02-24T14:05:35;12.07;;;5.97;;
5456;SDS011;2751;49.802;9.944;2023-02-24T14:08:06;9.63;;;4.83;;
5456;SDS011;2751;49.802;9.944;2023-02-24T14:10:33;4.83;;;3.33;;
5456;SDS011;2751;49.802;9.944;2023-02-24T14:13:02;7.77;;;4.17;;
5456;SDS011;2751;49.802;9.944;2023-02-24T14:15:31;15.43;;;6.70;;
5456;SDS011;2751;49.802;9.944;2023-02-24T14:18:00;10.40;;;3.80;;
5456;SDS011;2751;49.802;9.944;2023-02-24T14:20:31;8.83;;;3.70;;
5456;SDS011;2751;49.802;9.944;2023-02-24T14:22:59;4.37;;;3.57;;
5456;SDS011;2751;49.802;9.944;2023-02-24T14:25:28;8.47;;;4.57;;
5456;SDS011;2751;49.802;9.944;2023-02-24T14:27:59;5.87;;;3.97;;
5456;SDS011;2751;49.802;9.944;2023-02-24T14:30:27;7.00;;;4.33;;
5456;SDS011;2751;49.802;9.944;2023-02-24T14:32:58;8.53;;;5.63;;
5456;SDS011;2751;49.802;9.944;2023-02-24T14:35:27;10.60;;;6.20;;
5456;SDS011;2751;49.802;9.944;2023-02-24T14:37:59;6.00;;;4.23;;
5456;SDS011;2751;49.802;9.944;2023-02-24T14:40:25;9.00;;;3.77;;
5456;SDS011;2751;49.802;9.944;2023-02-24T14:42:53;14.30;;;6.00;;
5456;SDS011;2751;49.802;9.944;2023-02-24T14:45:22;10.57;;;5.47;;
5456;SDS011;2751;49.802;9.944;2023-02-24T14:47:50;7.33;;;4.73;;
5456;SDS011;2751;49.802;9.944;2023-02-24T14:50:18;6.60;;;3.90;;
5456;SDS011;2751;49.802;9.944;2023-02-24T14:52:51;6.97;;;3.13;;
5456;SDS011;2751;49.802;9.944;2023-02-24T14:55:22;10.80;;;5.63;;
5456;SDS011;2751;49.802;9.944;2023-02-24T14:57:53;5.07;;;3.30;;
5456;SDS011;2751;49.802;9.944;2023-02-24T15:00:24;7.20;;;5.50;;
5456;SDS011;2751;49.802;9.944;2023-02-24T15:02:56;9.50;;;4.47;;
5456;SDS011;2751;49.802;9.944;2023-02-24T15:05:30;7.13;;;3.97;;
5456;SDS011;2751;49.802;9.944;2023-02-24T15:07:59;8.83;;;4.97;;
5456;SDS011;2751;49.802;9.944;2023-02-24T15:10:28;9.00;;;3.60;;
5456;SDS011;2751;49.802;9.944;2023-02-24T15:12:56;5.90;;;4.13;;
5456;SDS011;2751;49.802;9.944;2023-02-24T15:15:33;8.60;;;5.00;;
5456;SDS011;2751;49.802;9.944;2023-02-24T15:18:13;5.50;;;3.10;;
5456;SDS011;2751;49.802;9.944;2023-02-24T15:20:48;8.20;;;4.80;;
5456;SDS011;2751;49.802;9.944;2023-02-24T15:23:27;8.70;;;4.17;;
5456;SDS011;2751;49.802;9.944;2023-02-24T15:25:56;12.70;;;6.23;;
5456;SDS011;2751;49.802;9.944;2023-02-24T15:28:25;8.23;;;4.90;;
5456;SDS011;2751;49.802;9.944;2023-02-24T15:30:59;5.17;;;3.40;;
5456;SDS011;2751;49.802;9.944;2023-02-24T15:33:34;10.50;;;5.40;;
5456;SDS011;2751;49.802;9.944;2023-02-24T15:36:05;8.67;;;6.00;;